sensor_id;sensor_type;location;lat;lon;timestamp;pressure;altitude;pressure_sealevel;temperature;humidity
54512;BME280;40419;47.438;19.026;2023-11-19T00:00:36;100361.31;;;1.86;100.00
54512;BME280;40419;47.438;19.026;2023-11-19T00:03:03;100359.88;;;1.82;100.00
54512;BME280;40419;47.438;19.026;2023-11-19T00:05:31;100361.84;;;1.80;100.00
54512;BME280;40419;47.438;19.026;2023-11-19T00:07:57;100346.78;;;1.79;100.00
54512;BME280;40419;47.438;19.026;2023-11-19T00:10:22;100335.16;;;1.90;100.00
54512;BME280;40419;47.438;19.026;2023-11-19T00:12:50;100333.66;;;1.97;100.00
54512;BME280;40419;47.438;19.026;2023-11-19T00:15:16;100338.78;;;2.10;100.00
54512;BME280;40419;47.438;19.026;2023-11-19T00:17:47;100346.31;;;1.95;100.00
54512;BME280;40419;47.438;19.026;2023-11-19T00:20:22;100339.41;;;1.92;100.00
54512;BME280;40419;47.438;19.026;2023-11-19T00:22:48;100342.38;;;1.99;100.00
54512;BME280;40419;47.438;19.026;2023-11-19T00:25:16;100338.38;;;1.84;100.00
54512;BME280;40419;47.438;19.026;2023-11-19T00:27:42;100346.63;;;1.71;100.00
54512;BME280;40419;47.438;19.026;2023-11-19T00:30:13;100357.34;;;1.81;100.00
54512;BME280;40419;47.438;19.026;2023-11-19T00:32:40;100379.25;;;1.74;100.00
54512;BME280;40419;47.438;19.026;2023-11-19T00:35:08;100377.38;;;1.65;100.00
54512;BME280;40419;47.438;19.026;2023-11-19T00:37:41;100376.34;;;1.56;100.00
54512;BME280;40419;47.438;19.026;2023-11-19T00:40:13;100388.19;;;1.64;100.00
54512;BME280;40419;47.438;19.026;2023-11-19T00:42:41;100362.84;;;1.58;100.00
54512;BME280;40419;47.438;19.026;2023-11-19T00:45:09;100353.47;;;1.64;100.00
54512;BME280;40419;47.438;19.026;2023-11-19T00:47:35;100360.72;;;1.52;100.00
54512;BME280;40419;47.438;19.026;2023-11-19T00:50:03;100365.75;;;1.45;100.00
54512;BME280;40419;47.438;19.026;2023-11-19T00:52:31;100356.47;;;1.49;100.00
54512;BME280;40419;47.438;19.026;2023-11-19T00:54:56;100345.94;;;1.27;100.00
54512;BME280;40419;47.438;19.026;2023-11-19T00:57:24;100343.81;;;1.41;100.00
54512;BME280;40419;47.438;19.026;2023-11-19T00:59:53;100344.06;;;1.38;100.00
54512;BME280;40419;47.438;19.026;2023-11-19T01:02:19;100341.88;;;1.44;100.00
54512;BME280;40419;47.438;19.026;2023-11-19T01:04:47;100343.38;;;1.36;100.00
54512;BME280;40419;47.438;19.026;2023-11-19T01:07:12;100342.84;;;1.42;100.00
54512;BME280;40419;47.438;19.026;2023-11-19T01:09:46;100354.31;;;1.33;100.00
54512;BME280;40419;47.438;19.026;2023-11-19T01:12:12;100348.06;;;1.23;100.00
54512;BME280;40419;47.438;19.026;2023-11-19T01:14:42;100351.75;;;1.32;100.00
54512;BME280;40419;47.438;19.026;2023-11-19T01:17:08;100350.72;;;1.23;100.00
54512;BME280;40419;47.438;19.026;2023-11-19T01:19:36;100352.41;;;1.24;100.00
54512;BME280;40419;47.438;19.026;2023-11-19T01:22:04;100345.13;;;1.26;100.00
54512;BME280;40419;47.438;19.026;2023-11-19T01:24:30;100350.19;;;1.29;100.00
54512;BME280;40419;47.438;19.026;2023-11-19T01:26:57;100336.28;;;1.26;100.00
54512;BME280;40419;47.438;19.026;2023-11-19T01:29:27;100344.16;;;1.27;100.00
54512;BME280;40419;47.438;19.026;2023-11-19T01:31:55;100325.28;;;1.19;100.00
54512;BME280;40419;47.438;19.026;2023-11-19T01:34:20;100344.06;;;1.17;100.00
54512;BME280;40419;47.438;19.026;2023-11-19T01:36:49;100343.94;;;1.19;100.00
54512;BME280;40419;47.438;19.026;2023-11-19T01:39:17;100337.91;;;1.17;100.00
54512;BME280;40419;47.438;19.026;2023-11-19T01:41:43;100341.00;;;1.22;100.00
54512;BME280;40419;47.438;19.026;2023-11-19T01:44:08;100340.22;;;1.31;100.00
54512;BME280;40419;47.438;19.026;2023-11-19T01:46:35;100335.22;;;1.38;100.00
54512;BME280;40419;47.438;19.026;2023-11-19T01:49:02;100334.72;;;1.23;100.00
54512;BME280;40419;47.438;19.026;2023-11-19T01:51:28;100322.47;;;1.20;100.00
54512;BME280;40419;47.438;19.026;2023-11-19T01:53:55;100317.09;;;1.11;100.00
54512;BME280;40419;47.438;19.026;2023-11-19T01:56:21;100310.25;;;1.18;100.00
54512;BME280;40419;47.438;19.026;2023-11-19T01:58:50;100300.09;;;1.12;100.00
54512;BME280;40419;47.438;19.026;2023-11-19T02:01:19;100301.88;;;1.01;100.00
54512;BME280;40419;47.438;19.026;2023-11-19T02:03:47;100283.66;;;1.06;100.00
54512;BME280;40419;47.438;19.026;2023-11-19T02:06:18;100291.47;;;0.98;100.00
54512;BME280;40419;47.438;19.026;2023-11-19T02:08:43;100294.75;;;0.91;100.00
54512;BME280;40419;47.438;19.026;2023-11-19T02:11:09;100288.81;;;0.77;100.00
54512;BME280;40419;47.438;19.026;2023-11-19T02:13:37;100291.78;;;0.84;100.00
54512;BME280;40419;47.438;19.026;2023-11-19T02:16:06;100292.22;;;0.89;100.00
54512;BME280;40419;47.438;19.026;2023-11-19T02:18:33;100289.31;;;0.92;100.00
54512;BME280;40419;47.438;19.026;2023-11-19T02:20:59;100291.38;;;0.88;100.00
54512;BME280;40419;47.438;19.026;2023-11-19T02:23:28;100299.78;;;0.84;100.00
54512;BME280;40419;47.438;19.026;2023-11-19T02:26:39;100292.84;;;0.60;100.00
54512;BME280;40419;47.438;19.026;2023-11-19T02:28:46;100278.44;;;0.84;100.00
54512;BME280;40419;47.438;19.026;2023-11-19T02:31:14;100274.03;;;0.73;100.00
54512;BME280;40419;47.438;19.026;2023-11-19T02:33:40;100275.91;;;0.61;100.00
54512;BME280;40419;47.438;19.026;2023-11-19T02:36:06;100278.78;;;0.69;100.00
54512;BME280;40419;47.438;19.026;2023-11-19T02:38:36;100288.91;;;0.55;100.00
54512;BME280;40419;47.438;19.026;2023-11-19T02:41:04;100292.22;;;0.47;100.00
54512;BME280;40419;47.438;19.026;2023-11-19T02:43:32;100288.78;;;0.56;100.00
54512;BME280;40419;47.438;19.026;2023-11-19T02:46:02;100275.09;;;0.49;100.00
54512;BME280;40419;47.438;19.026;2023-11-19T02:48:28;100284.78;;;0.50;100.00
54512;BME280;40419;47.438;19.026;2023-11-19T02:50:56;100267.06;;;0.61;100.00
54512;BME280;40419;47.438;19.026;2023-11-19T02:53:24;100264.56;;;0.48;100.00
54512;BME280;40419;47.438;19.026;2023-11-19T02:55:51;100261.59;;;0.62;100.00
54512;BME280;40419;47.438;19.026;2023-11-19T02:58:19;100264.41;;;0.61;100.00
54512;BME280;40419;47.438;19.026;2023-11-19T03:00:47;100256.72;;;0.67;100.00
54512;BME280;40419;47.438;19.026;2023-11-19T03:03:25;100241.50;;;0.58;100.00
54512;BME280;40419;47.438;19.026;2023-11-19T03:05:54;100241.25;;;0.61;100.00
54512;BME280;40419;47.438;19.026;2023-11-19T03:08:24;100244.75;;;0.62;100.00
54512;BME280;40419;47.438;19.026;2023-11-19T03:10:52;100241.56;;;0.68;100.00
54512;BME280;40419;47.438;19.026;2023-11-19T03:13:20;100246.81;;;0.69;100.00
54512;BME280;40419;47.438;19.026;2023-11-19T03:15:49;100248.03;;;0.65;100.00
54512;BME280;40419;47.438;19.026;2023-11-19T03:18:17;100244.63;;;0.63;100.00
54512;BME280;40419;47.438;19.026;2023-11-19T03:20:46;100231.44;;;0.62;100.00
54512;BME280;40419;47.438;19.026;2023-11-19T03:23:11;100227.94;;;0.61;100.00
54512;BME280;40419;47.438;19.026;2023-11-19T03:25:39;100229.94;;;0.69;100.00
54512;BME280;40419;47.438;19.026;2023-11-19T03:28:07;100228.38;;;0.66;100.00
54512;BME280;40419;47.438;19.026;2023-11-19T03:30:40;100231.56;;;0.60;100.00
54512;BME280;40419;47.438;19.026;2023-11-19T03:33:10;100222.84;;;0.58;100.00
54512;BME280;40419;47.438;19.026;2023-11-19T03:35:40;100232.03;;;0.65;100.00
54512;BME280;40419;47.438;19.026;2023-11-19T03:38:10;100239.69;;;0.59;100.00
54512;BME280;40419;47.438;19.026;2023-11-19T03:40:39;100212.50;;;0.65;100.00
54512;BME280;40419;47.438;19.026;2023-11-19T03:43:08;100195.78;;;0.53;100.00
54512;BME280;40419;47.438;19.026;2023-11-19T03:45:36;100200.63;;;0.69;100.00
54512;BME280;40419;47.438;19.026;2023-11-19T03:48:07;100193.84;;;0.65;100.00
54512;BME280;40419;47.438;19.026;2023-11-19T03:50:37;100191.66;;;0.70;100.00
54512;BME280;40419;47.438;19.026;2023-11-19T03:53:06;100182.56;;;0.73;100.00
54512;BME280;40419;47.438;19.026;2023-11-19T03:55:36;100173.84;;;0.70;100.00
54512;BME280;40419;47.438;19.026;2023-11-19T03:58:01;100170.34;;;0.70;100.00
54512;BME280;40419;47.438;19.026;2023-11-19T04:00:29;100174.03;;;0.79;100.00
54512;BME280;40419;47.438;19.026;2023-11-19T04:02:54;100179.78;;;0.74;100.00
54512;BME280;40419;47.438;19.026;2023-11-19T04:05:22;100170.34;;;0.70;100.00
54512;BME280;40419;47.438;19.026;2023-11-19T04:07:48;100170.22;;;0.72;100.00
54512;BME280;40419;47.438;19.026;2023-11-19T04:10:16;100171.81;;;0.84;100.00
54512;BME280;40419;47.438;19.026;2023-11-19T04:12:42;100158.69;;;0.92;100.00
54512;BME280;40419;47.438;19.026;2023-11-19T04:15:15;100152.88;;;0.56;100.00
54512;BME280;40419;47.438;19.026;2023-11-19T04:17:42;100159.69;;;0.49;100.00
54512;BME280;40419;47.438;19.026;2023-11-19T04:20:08;100157.41;;;0.44;100.00
54512;BME280;40419;47.438;19.026;2023-11-19T04:22:40;100154.22;;;0.50;100.00
54512;BME280;40419;47.438;19.026;2023-11-19T04:25:08;100158.66;;;0.40;100.00
54512;BME280;40419;47.438;19.026;2023-11-19T04:27:34;100149.44;;;0.44;100.00
54512;BME280;40419;47.438;19.026;2023-11-19T04:30:00;100144.22;;;0.43;100.00
54512;BME280;40419;47.438;19.026;2023-11-19T04:32:32;100137.53;;;0.27;100.00
54512;BME280;40419;47.438;19.026;2023-11-19T04:34:59;100147.03;;;0.20;100.00
54512;BME280;40419;47.438;19.026;2023-11-19T04:37:27;100140.69;;;0.21;100.00
54512;BME280;40419;47.438;19.026;2023-11-19T04:39:52;100143.44;;;0.10;100.00
54512;BME280;40419;47.438;19.026;2023-11-19T04:42:22;100143.56;;;0.08;100.00
54512;BME280;40419;47.438;19.026;2023-11-19T04:44:49;100168.47;;;0.19;100.00
54512;BME280;40419;47.438;19.026;2023-11-19T04:47:15;100172.63;;;0.32;100.00
54512;BME280;40419;47.438;19.026;2023-11-19T04:49:45;100175.66;;;0.07;100.00
54512;BME280;40419;47.438;19.026;2023-11-19T04:52:13;100172.47;;;0.13;100.00
54512;BME280;40419;47.438;19.026;2023-11-19T04:54:44;100184.03;;;0.23;100.00
54512;BME280;40419;47.438;19.026;2023-11-19T04:57:10;100179.91;;;0.30;100.00
54512;BME280;40419;47.438;19.026;2023-11-19T04:59:41;100180.94;;;0.39;100.00
54512;BME280;40419;47.438;19.026;2023-11-19T05:02:08;100182.50;;;0.42;100.00
54512;BME280;40419;47.438;19.026;2023-11-19T05:04:36;100173.16;;;0.47;100.00
54512;BME280;40419;47.438;19.026;2023-11-19T05:07:03;100169.38;;;0.50;100.00
54512;BME280;40419;47.438;19.026;2023-11-19T05:09:33;100164.50;;;0.55;100.00
54512;BME280;40419;47.438;19.026;2023-11-19T05:12:00;100165.16;;;0.68;100.00
54512;BME280;40419;47.438;19.026;2023-11-19T05:14:32;100162.88;;;0.64;100.00
54512;BME280;40419;47.438;19.026;2023-11-19T05:17:00;100168.38;;;0.72;100.00
54512;BME280;40419;47.438;19.026;2023-11-19T05:19:28;100185.81;;;0.34;100.00
54512;BME280;40419;47.438;19.026;2023-11-19T05:21:53;100186.50;;;0.36;100.00
54512;BME280;40419;47.438;19.026;2023-11-19T05:24:19;100178.13;;;0.41;100.00
54512;BME280;40419;47.438;19.026;2023-11-19T05:26:44;100170.34;;;0.49;100.00
54512;BME280;40419;47.438;19.026;2023-11-19T05:29:12;100162.28;;;0.39;100.00
54512;BME280;40419;47.438;19.026;2023-11-19T05:31:40;100158.91;;;0.58;100.00
54512;BME280;40419;47.438;19.026;2023-11-19T05:34:06;100149.16;;;0.47;100.00
54512;BME280;40419;47.438;19.026;2023-11-19T05:36:33;100149.47;;;0.54;100.00
54512;BME280;40419;47.438;19.026;2023-11-19T05:39:01;100151.84;;;0.47;100.00
54512;BME280;40419;47.438;19.026;2023-11-19T05:41:28;100157.47;;;0.54;100.00
54512;BME280;40419;47.438;19.026;2023-11-19T05:43:56;100151.84;;;0.47;100.00
54512;BME280;40419;47.438;19.026;2023-11-19T05:46:23;100143.56;;;0.50;100.00
54512;BME280;40419;47.438;19.026;2023-11-19T05:48:51;100154.16;;;0.41;100.00
54512;BME280;40419;47.438;19.026;2023-11-19T05:51:16;100151.69;;;0.49;100.00
54512;BME280;40419;47.438;19.026;2023-11-19T05:53:42;100177.00;;;0.55;100.00
54512;BME280;40419;47.438;19.026;2023-11-19T05:56:11;100175.59;;;0.60;100.00
54512;BME280;40419;47.438;19.026;2023-11-19T05:58:48;100167.59;;;0.60;100.00
54512;BME280;40419;47.438;19.026;2023-11-19T06:01:18;100156.91;;;0.50;100.00
54512;BME280;40419;47.438;19.026;2023-11-19T06:03:46;100146.78;;;0.44;100.00
54512;BME280;40419;47.438;19.026;2023-11-19T06:06:15;100158.47;;;0.53;100.00
54512;BME280;40419;47.438;19.026;2023-11-19T06:08:43;100160.41;;;0.51;100.00
54512;BME280;40419;47.438;19.026;2023-11-19T06:11:12;100152.88;;;0.56;100.00
54512;BME280;40419;47.438;19.026;2023-11-19T06:13:45;100153.41;;;0.50;100.00
54512;BME280;40419;47.438;19.026;2023-11-19T06:16:18;100148.00;;;0.40;100.00
54512;BME280;40419;47.438;19.026;2023-11-19T06:18:45;100138.91;;;0.43;100.00
54512;BME280;40419;47.438;19.026;2023-11-19T06:21:12;100146.25;;;0.29;100.00
54512;BME280;40419;47.438;19.026;2023-11-19T06:23:42;100147.22;;;0.49;100.00
54512;BME280;40419;47.438;19.026;2023-11-19T06:26:12;100140.56;;;0.65;100.00
54512;BME280;40419;47.438;19.026;2023-11-19T06:28:41;100128.13;;;0.75;100.00
54512;BME280;40419;47.438;19.026;2023-11-19T06:31:09;100120.88;;;0.77;100.00
54512;BME280;40419;47.438;19.026;2023-11-19T06:33:35;100122.94;;;0.74;100.00
54512;BME280;40419;47.438;19.026;2023-11-19T06:36:00;100134.06;;;0.79;100.00
54512;BME280;40419;47.438;19.026;2023-11-19T06:38:26;100123.13;;;0.82;100.00
54512;BME280;40419;47.438;19.026;2023-11-19T06:40:51;100130.66;;;0.77;100.00
54512;BME280;40419;47.438;19.026;2023-11-19T06:43:17;100112.59;;;0.80;100.00
54512;BME280;40419;47.438;19.026;2023-11-19T06:45:43;100121.59;;;0.89;100.00
54512;BME280;40419;47.438;19.026;2023-11-19T06:48:08;100124.63;;;0.75;100.00
54512;BME280;40419;47.438;19.026;2023-11-19T06:50:36;100114.34;;;1.01;100.00
54512;BME280;40419;47.438;19.026;2023-11-19T06:53:04;100123.81;;;1.15;100.00
54512;BME280;40419;47.438;19.026;2023-11-19T06:55:38;100120.63;;;1.21;100.00
54512;BME280;40419;47.438;19.026;2023-11-19T06:58:06;100111.66;;;1.32;100.00
54512;BME280;40419;47.438;19.026;2023-11-19T07:00:32;100104.59;;;1.21;100.00
54512;BME280;40419;47.438;19.026;2023-11-19T07:02:58;100100.03;;;0.92;100.00
54512;BME280;40419;47.438;19.026;2023-11-19T07:05:26;100106.75;;;0.96;100.00
54512;BME280;40419;47.438;19.026;2023-11-19T07:07:55;100122.00;;;1.25;100.00
54512;BME280;40419;47.438;19.026;2023-11-19T07:10:23;100129.16;;;1.15;100.00
54512;BME280;40419;47.438;19.026;2023-11-19T07:12:51;100117.41;;;1.27;100.00
54512;BME280;40419;47.438;19.026;2023-11-19T07:15:21;100115.88;;;1.44;100.00
54512;BME280;40419;47.438;19.026;2023-11-19T07:17:47;100098.06;;;1.54;100.00
54512;BME280;40419;47.438;19.026;2023-11-19T07:20:13;100104.66;;;1.50;100.00
54512;BME280;40419;47.438;19.026;2023-11-19T07:22:45;100109.44;;;1.47;100.00
54512;BME280;40419;47.438;19.026;2023-11-19T07:25:15;100121.22;;;1.44;100.00
54512;BME280;40419;47.438;19.026;2023-11-19T07:27:43;100125.59;;;1.45;100.00
54512;BME280;40419;47.438;19.026;2023-11-19T07:30:09;100127.97;;;1.58;100.00
54512;BME280;40419;47.438;19.026;2023-11-19T07:32:34;100113.38;;;1.62;100.00
54512;BME280;40419;47.438;19.026;2023-11-19T07:35:04;100114.06;;;1.64;100.00
54512;BME280;40419;47.438;19.026;2023-11-19T07:37:31;100114.38;;;1.71;100.00
54512;BME280;40419;47.438;19.026;2023-11-19T07:40:01;100122.63;;;1.58;100.00
54512;BME280;40419;47.438;19.026;2023-11-19T07:42:29;100124.91;;;1.63;100.00
54512;BME280;40419;47.438;19.026;2023-11-19T07:44:54;100118.41;;;1.46;100.00
54512;BME280;40419;47.438;19.026;2023-11-19T07:47:23;100136.69;;;1.60;100.00
54512;BME280;40419;47.438;19.026;2023-11-19T07:49:50;100137.22;;;1.54;100.00
54512;BME280;40419;47.438;19.026;2023-11-19T07:52:18;100130.09;;;1.54;100.00
54512;BME280;40419;47.438;19.026;2023-11-19T07:54:44;100122.78;;;1.56;100.00
54512;BME280;40419;47.438;19.026;2023-11-19T07:57:09;100124.16;;;1.41;100.00
54512;BME280;40419;47.438;19.026;2023-11-19T07:59:35;100126.00;;;1.60;100.00
54512;BME280;40419;47.438;19.026;2023-11-19T08:02:04;100113.25;;;1.64;100.00
54512;BME280;40419;47.438;19.026;2023-11-19T08:04:32;100114.81;;;1.66;100.00
54512;BME280;40419;47.438;19.026;2023-11-19T08:07:01;100108.91;;;1.72;100.00
54512;BME280;40419;47.438;19.026;2023-11-19T08:09:26;100096.09;;;1.76;100.00
54512;BME280;40419;47.438;19.026;2023-11-19T08:11:57;100093.97;;;1.80;100.00
54512;BME280;40419;47.438;19.026;2023-11-19T08:14:23;100084.00;;;1.72;100.00
54512;BME280;40419;47.438;19.026;2023-11-19T08:16:49;100082.19;;;1.92;100.00
54512;BME280;40419;47.438;19.026;2023-11-19T08:19:15;100068.13;;;1.70;100.00
54512;BME280;40419;47.438;19.026;2023-11-19T08:21:43;100048.47;;;1.71;100.00
54512;BME280;40419;47.438;19.026;2023-11-19T08:24:11;100062.81;;;1.80;100.00
54512;BME280;40419;47.438;19.026;2023-11-19T08:26:44;100048.91;;;1.67;100.00
54512;BME280;40419;47.438;19.026;2023-11-19T08:29:14;100021.06;;;1.79;100.00
54512;BME280;40419;47.438;19.026;2023-11-19T08:31:39;100009.13;;;1.83;100.00
54512;BME280;40419;47.438;19.026;2023-11-19T08:34:05;100038.91;;;1.88;100.00
54512;BME280;40419;47.438;19.026;2023-11-19T08:36:36;100070.94;;;1.98;100.00
54512;BME280;40419;47.438;19.026;2023-11-19T08:39:07;100080.50;;;1.91;100.00
54512;BME280;40419;47.438;19.026;2023-11-19T08:41:36;100057.31;;;2.01;100.00
54512;BME280;40419;47.438;19.026;2023-11-19T08:44:03;100038.91;;;1.88;100.00
54512;BME280;40419;47.438;19.026;2023-11-19T08:46:31;100045.63;;;2.12;100.00
54512;BME280;40419;47.438;19.026;2023-11-19T08:48:59;100045.44;;;2.33;100.00
54512;BME280;40419;47.438;19.026;2023-11-19T08:51:25;100028.34;;;2.06;100.00
54512;BME280;40419;47.438;19.026;2023-11-19T08:53:55;100024.78;;;2.25;100.00
54512;BME280;40419;47.438;19.026;2023-11-19T08:56:24;100058.16;;;2.49;100.00
54512;BME280;40419;47.438;19.026;2023-11-19T08:58:52;100038.00;;;2.27;100.00
54512;BME280;40419;47.438;19.026;2023-11-19T09:01:20;100028.91;;;2.10;100.00
54512;BME280;40419;47.438;19.026;2023-11-19T09:03:48;100054.59;;;2.21;100.00
54512;BME280;40419;47.438;19.026;2023-11-19T09:06:14;100046.13;;;2.35;100.00
54512;BME280;40419;47.438;19.026;2023-11-19T09:08:39;100042.75;;;2.23;100.00
54512;BME280;40419;47.438;19.026;2023-11-19T09:11:07;100055.69;;;2.38;100.00
54512;BME280;40419;47.438;19.026;2023-11-19T09:13:33;100045.03;;;2.18;100.00
54512;BME280;40419;47.438;19.026;2023-11-19T09:15:59;100059.09;;;2.30;100.00
54512;BME280;40419;47.438;19.026;2023-11-19T09:18:31;100061.84;;;2.38;100.00
54512;BME280;40419;47.438;19.026;2023-11-19T09:20:59;100061.84;;;2.38;100.00
54512;BME280;40419;47.438;19.026;2023-11-19T09:23:29;100055.84;;;2.26;100.00
54512;BME280;40419;47.438;19.026;2023-11-19T09:26:00;100056.13;;;2.33;100.00
54512;BME280;40419;47.438;19.026;2023-11-19T09:28:25;100064.38;;;2.40;100.00
54512;BME280;40419;47.438;19.026;2023-11-19T09:30:51;100065.53;;;2.37;100.00
54512;BME280;40419;47.438;19.026;2023-11-19T09:33:16;100065.53;;;2.27;100.00
54512;BME280;40419;47.438;19.026;2023-11-19T09:35:42;100056.75;;;2.07;100.00
54512;BME280;40419;47.438;19.026;2023-11-19T09:38:07;100053.75;;;2.20;100.00
54512;BME280;40419;47.438;19.026;2023-11-19T09:40:35;100049.66;;;2.26;100.00
54512;BME280;40419;47.438;19.026;2023-11-19T09:43:01;100040.09;;;2.33;100.00
54512;BME280;40419;47.438;19.026;2023-11-19T09:45:30;100027.25;;;2.46;100.00
54512;BME280;40419;47.438;19.026;2023-11-19T09:48:00;100029.94;;;2.37;100.00
54512;BME280;40419;47.438;19.026;2023-11-19T09:50:28;100030.34;;;2.42;100.00
54512;BME280;40419;47.438;19.026;2023-11-19T09:52:54;100028.34;;;2.54;100.00
54512;BME280;40419;47.438;19.026;2023-11-19T09:55:22;100026.06;;;2.59;100.00
54512;BME280;40419;47.438;19.026;2023-11-19T09:57:51;100011.44;;;2.63;100.00
54512;BME280;40419;47.438;19.026;2023-11-19T10:00:21;100022.88;;;2.73;100.00
54512;BME280;40419;47.438;19.026;2023-11-19T10:02:49;100017.00;;;2.70;100.00
54512;BME280;40419;47.438;19.026;2023-11-19T10:05:19;100004.59;;;2.78;100.00
54512;BME280;40419;47.438;19.026;2023-11-19T10:07:48;100011.63;;;2.79;100.00
54512;BME280;40419;47.438;19.026;2023-11-19T10:10:18;100000.63;;;2.82;100.00
54512;BME280;40419;47.438;19.026;2023-11-19T10:12:53;99987.97;;;2.75;100.00
54512;BME280;40419;47.438;19.026;2023-11-19T10:15:22;99978.34;;;2.92;100.00
54512;BME280;40419;47.438;19.026;2023-11-19T10:17:55;99984.06;;;2.97;100.00
54512;BME280;40419;47.438;19.026;2023-11-19T10:20:25;99984.81;;;2.89;100.00
54512;BME280;40419;47.438;19.026;2023-11-19T10:22:53;99971.66;;;2.96;100.00
54512;BME280;40419;47.438;19.026;2023-11-19T10:25:26;99964.22;;;2.99;100.00
54512;BME280;40419;47.438;19.026;2023-11-19T10:27:53;99964.34;;;2.98;100.00
54512;BME280;40419;47.438;19.026;2023-11-19T10:30:26;99965.03;;;3.00;100.00
54512;BME280;40419;47.438;19.026;2023-11-19T10:35:35;99965.50;;;3.13;100.00
54512;BME280;40419;47.438;19.026;2023-11-19T10:38:13;99968.56;;;3.18;100.00
54512;BME280;40419;47.438;19.026;2023-11-19T10:40:42;99960.94;;;3.24;100.00
54512;BME280;40419;47.438;19.026;2023-11-19T10:43:13;99962.06;;;3.21;100.00
54512;BME280;40419;47.438;19.026;2023-11-19T10:45:39;99963.91;;;3.21;100.00
54512;BME280;40419;47.438;19.026;2023-11-19T10:48:05;99977.50;;;3.27;100.00
54512;BME280;40419;47.438;19.026;2023-11-19T10:50:42;99970.00;;;2.95;100.00
54512;BME280;40419;47.438;19.026;2023-11-19T10:53:10;99957.47;;;2.95;100.00
54512;BME280;40419;47.438;19.026;2023-11-19T10:55:37;99954.44;;;3.08;100.00
54512;BME280;40419;47.438;19.026;2023-11-19T10:58:11;99955.78;;;3.12;100.00
54512;BME280;40419;47.438;19.026;2023-11-19T11:03:21;99944.72;;;3.07;100.00
54512;BME280;40419;47.438;19.026;2023-11-19T11:05:51;99939.16;;;3.00;100.00
54512;BME280;40419;47.438;19.026;2023-11-19T11:08:20;99933.41;;;3.13;100.00
54512;BME280;40419;47.438;19.026;2023-11-19T11:10:53;99919.03;;;3.32;100.00
54512;BME280;40419;47.438;19.026;2023-11-19T11:13:19;99915.44;;;3.24;100.00
54512;BME280;40419;47.438;19.026;2023-11-19T11:15:45;99912.97;;;2.94;100.00
54512;BME280;40419;47.438;19.026;2023-11-19T11:18:19;99896.16;;;3.20;100.00
54512;BME280;40419;47.438;19.026;2023-11-19T11:20:49;99896.91;;;3.30;100.00
54512;BME280;40419;47.438;19.026;2023-11-19T11:26:35;99895.47;;;3.36;100.00
54512;BME280;40419;47.438;19.026;2023-11-19T11:35:07;99888.97;;;3.39;100.00
54512;BME280;40419;47.438;19.026;2023-11-19T11:38:00;99899.69;;;3.21;100.00
54512;BME280;40419;47.438;19.026;2023-11-19T11:40:27;99898.00;;;3.19;100.00
54512;BME280;40419;47.438;19.026;2023-11-19T11:42:57;99907.16;;;3.17;100.00
54512;BME280;40419;47.438;19.026;2023-11-19T11:45:43;99887.91;;;3.31;100.00
54512;BME280;40419;47.438;19.026;2023-11-19T11:48:22;99876.06;;;3.16;100.00
54512;BME280;40419;47.438;19.026;2023-11-19T11:50:54;99863.69;;;3.15;100.00
54512;BME280;40419;47.438;19.026;2023-11-19T11:53:21;99867.31;;;3.32;100.00
54512;BME280;40419;47.438;19.026;2023-11-19T11:58:20;99864.72;;;3.40;100.00
54512;BME280;40419;47.438;19.026;2023-11-19T12:00:51;99851.34;;;3.40;100.00
54512;BME280;40419;47.438;19.026;2023-11-19T12:03:21;99846.88;;;3.75;100.00
54512;BME280;40419;47.438;19.026;2023-11-19T12:05:50;99846.88;;;3.75;100.00
54512;BME280;40419;47.438;19.026;2023-11-19T12:08:19;99838.38;;;3.53;100.00
54512;BME280;40419;47.438;19.026;2023-11-19T12:10:52;99842.50;;;3.74;100.00
54512;BME280;40419;47.438;19.026;2023-11-19T12:13:19;99839.75;;;3.92;100.00
54512;BME280;40419;47.438;19.026;2023-11-19T12:18:33;99807.50;;;4.02;100.00
54512;BME280;40419;47.438;19.026;2023-11-19T12:20:59;99801.44;;;4.00;100.00
54512;BME280;40419;47.438;19.026;2023-11-19T12:23:32;99816.53;;;4.01;100.00
54512;BME280;40419;47.438;19.026;2023-11-19T12:25:58;99807.34;;;4.12;100.00
54512;BME280;40419;47.438;19.026;2023-11-19T12:28:24;99803.50;;;4.14;100.00
54512;BME280;40419;47.438;19.026;2023-11-19T12:30:52;99800.19;;;4.20;100.00
54512;BME280;40419;47.438;19.026;2023-11-19T12:33:20;99793.88;;;4.38;100.00
54512;BME280;40419;47.438;19.026;2023-11-19T12:35:48;99787.09;;;4.25;100.00
54512;BME280;40419;47.438;19.026;2023-11-19T12:38:24;99779.78;;;4.36;100.00
54512;BME280;40419;47.438;19.026;2023-11-19T12:41:04;99769.72;;;4.30;100.00
54512;BME280;40419;47.438;19.026;2023-11-19T12:43:34;99766.66;;;4.16;100.00
54512;BME280;40419;47.438;19.026;2023-11-19T12:46:16;99780.38;;;4.13;100.00
54512;BME280;40419;47.438;19.026;2023-11-19T12:48:45;99775.03;;;4.13;100.00
54512;BME280;40419;47.438;19.026;2023-11-19T12:51:10;99769.34;;;4.16;100.00
54512;BME280;40419;47.438;19.026;2023-11-19T12:53:48;99759.94;;;4.12;100.00
54512;BME280;40419;47.438;19.026;2023-11-19T12:56:17;99752.22;;;4.09;100.00
54512;BME280;40419;47.438;19.026;2023-11-19T12:58:42;99752.72;;;3.96;100.00
54512;BME280;40419;47.438;19.026;2023-11-19T13:01:15;99741.34;;;3.94;100.00
54512;BME280;40419;47.438;19.026;2023-11-19T13:03:41;99739.00;;;3.99;100.00
54512;BME280;40419;47.438;19.026;2023-11-19T13:06:07;99737.31;;;3.98;100.00
54512;BME280;40419;47.438;19.026;2023-11-19T13:08:57;99748.00;;;3.98;100.00